Time;durP1;ratioP1;P1;durP2;ratioP2;P2;SDS_P1;SDS_P2;PMS_P1;PMS_P2;Temp;Humidity;BMP_temperature;BMP_pressure;BME280_temperature;BME280_humidity;BME280_pressure;Samples;Min_cycle;Max_cycle;Signal;HPM_P1;HPM_P2
2022/12/31 00:01:09;;;;;;;13.33;12.20;;;;;;;5.36;100.00;96937.28;5037223;28;21211;-68
2022/12/31 00:03:39;;;;;;;13.87;12.47;;;;;;;5.40;100.00;96930.72;5042263;28;20578;-69
2022/12/31 00:06:14;;;;;;;13.17;12.07;;;;;;;5.41;100.00;96936.81;5035063;28;20432;-67
2022/12/31 00:08:42;;;;;;;13.87;12.40;;;;;;;5.44;100.00;96937.31;5025970;28;20760;-69
2022/12/31 00:11:09;;;;;;;12.57;11.47;;;;;;;5.45;100.00;96928.44;5033276;28;20291;-70
2022/12/31 00:13:37;;;;;;;14.63;13.30;;;;;;;5.48;100.00;96943.88;4998467;28;20634;-69
2022/12/31 00:16:09;;;;;;;14.20;12.57;;;;;;;5.51;100.00;96932.25;5039638;28;20621;-66
2022/12/31 00:18:43;;;;;;;13.60;12.03;;;;;;;5.50;100.00;96941.97;5051090;28;20227;-70
2022/12/31 00:21:11;;;;;;;13.43;12.17;;;;;;;5.54;100.00;96931.13;5035742;28;20759;-67
2022/12/31 00:23:39;;;;;;;13.27;12.00;;;;;;;5.58;100.00;96935.09;5023091;28;20543;-70
2022/12/31 00:26:08;;;;;;;15.23;13.43;;;;;;;5.55;100.00;96935.41;5029154;28;20420;-67
2022/12/31 00:28:37;;;;;;;12.60;11.37;;;;;;;5.53;100.00;96947.88;4992047;28;20234;-69
2022/12/31 00:31:06;;;;;;;14.07;12.77;;;;;;;5.52;100.00;96949.66;5037986;28;20199;-67
2022/12/31 00:33:34;;;;;;;13.10;11.70;;;;;;;5.48;100.00;96954.41;5046732;28;20293;-69
2022/12/31 00:36:11;;;;;;;13.63;12.33;;;;;;;5.49;100.00;96953.44;5037915;28;20227;-68
2022/12/31 00:38:39;;;;;;;13.03;11.77;;;;;;;5.53;100.00;96953.13;5043874;28;20229;-69
2022/12/31 00:41:07;;;;;;;12.33;11.33;;;;;;;5.53;100.00;96958.38;5021489;28;20686;-68
2022/12/31 00:43:35;;;;;;;13.40;12.20;;;;;;;5.48;100.00;96949.16;4997728;28;20215;-69
2022/12/31 00:46:03;;;;;;;13.50;12.30;;;;;;;5.48;100.00;96957.03;5035693;28;20788;-67
2022/12/31 00:48:31;;;;;;;15.03;13.53;;;;;;;5.47;100.00;96955.38;5040987;28;21020;-70
2022/12/31 00:51:00;;;;;;;14.30;12.80;;;;;;;5.47;100.00;96954.56;5037113;28;20602;-68
2022/12/31 00:53:29;;;;;;;13.30;12.00;;;;;;;5.43;100.00;96953.25;5036967;28;20206;-69
2022/12/31 00:56:00;;;;;;;13.70;12.40;;;;;;;5.42;100.00;96964.72;5023053;28;20250;-67
2022/12/31 00:58:28;;;;;;;14.23;12.77;;;;;;;5.41;100.00;96965.72;5036814;28;20223;-70
2022/12/31 01:00:55;;;;;;;14.50;12.63;;;;;;;5.35;100.00;96961.91;4989964;28;20211;-67
2022/12/31 01:03:23;;;;;;;16.17;14.57;;;;;;;5.34;100.00;96962.88;5038900;28;20414;-69
2022/12/31 01:05:52;;;;;;;15.70;14.17;;;;;;;5.38;100.00;96964.22;5042883;28;20345;-67
2022/12/31 01:08:19;;;;;;;14.87;13.53;;;;;;;5.41;100.00;96963.91;5035170;28;20428;-70
2022/12/31 01:13:37;;;;;;;15.37;13.90;;;;;;;5.41;100.00;96969.16;5039268;28;20195;-69
2022/12/31 01:16:08;;;;;;;14.27;12.87;;;;;;;5.41;100.00;96963.09;4994571;28;20237;-68
2022/12/31 01:18:37;;;;;;;15.07;13.67;;;;;;;5.40;100.00;96972.75;5015929;28;20329;-68
2022/12/31 01:21:06;;;;;;;14.73;13.27;;;;;;;5.38;100.00;96979.97;5026920;28;20298;-67
2022/12/31 01:23:34;;;;;;;15.97;14.00;;;;;;;5.39;100.00;96979.00;5041240;28;20195;-68
2022/12/31 01:26:05;;;;;;;14.30;12.93;;;;;;;5.41;100.00;96984.91;5032096;28;20333;-70
2022/12/31 01:28:33;;;;;;;13.73;12.43;;;;;;;5.47;100.00;96989.53;5049094;28;20257;-68
2022/12/31 01:31:04;;;;;;;15.23;13.73;;;;;;;5.45;100.00;96990.69;5023197;28;20483;-69
2022/12/31 01:33:32;;;;;;;13.73;12.47;;;;;;;5.49;100.00;96992.88;5034046;28;20246;-67
2022/12/31 01:36:03;;;;;;;13.90;12.53;;;;;;;5.48;100.00;96996.44;5018013;28;20849;-70
2022/12/31 01:38:31;;;;;;;15.10;13.57;;;;;;;5.45;100.00;96991.50;5043464;28;20234;-68
2022/12/31 01:40:59;;;;;;;15.87;14.23;;;;;;;5.44;100.00;96994.31;5041856;28;20492;-69
2022/12/31 01:43:45;;;;;;;13.80;12.50;;;;;;;5.47;100.00;96992.16;5046513;28;20203;-67
2022/12/31 01:46:14;;;;;;;13.43;12.13;;;;;;;5.50;100.00;96994.50;5028648;28;20302;-67
2022/12/31 01:48:42;;;;;;;13.93;12.63;;;;;;;5.54;100.00;96994.19;5039356;28;20219;-68
2022/12/31 01:51:10;;;;;;;13.73;12.53;;;;;;;5.53;100.00;97001.25;5003693;28;20551;-70
2022/12/31 01:53:38;;;;;;;13.57;12.30;;;;;;;5.49;100.00;96998.13;5042392;28;20206;-67
2022/12/31 01:56:07;;;;;;;13.57;12.17;;;;;;;5.49;100.00;96992.88;5045266;28;20223;-70
2022/12/31 01:58:37;;;;;;;13.00;11.90;;;;;;;5.52;100.00;97004.03;5044553;28;20219;-68
2022/12/31 02:01:07;;;;;;;14.03;12.70;;;;;;;5.55;100.00;97012.41;5042907;28;20199;-71
2022/12/31 02:03:35;;;;;;;13.87;12.47;;;;;;;5.51;100.00;96992.69;5029592;28;20518;-67
2022/12/31 02:06:07;;;;;;;14.17;12.67;;;;;;;5.49;100.00;96997.28;5001649;28;21345;-68
2022/12/31 02:08:35;;;;;;;14.07;12.63;;;;;;;5.44;100.00;96999.56;5035222;28;20222;-67
2022/12/31 02:11:24;;;;;;;14.30;12.43;;;;;;;5.44;100.00;97000.38;5036810;28;20214;-70
2022/12/31 02:13:53;;;;;;;12.77;11.53;;;;;;;5.39;100.00;97002.66;5045786;28;20207;-69
2022/12/31 02:16:31;;;;;;;12.07;10.90;;;;;;;5.34;100.00;96999.66;5048913;28;20218;-69
2022/12/31 02:19:06;;;;;;;11.73;10.73;;;;;;;5.33;100.00;97001.47;5032723;28;20665;-69
2022/12/31 02:21:51;;;;;;;13.40;12.10;;;;;;;5.36;100.00;97009.06;5022204;28;20222;-69
2022/12/31 02:24:48;;;;;;;13.77;11.97;;;;;;;5.33;100.00;97016.41;5038573;28;21134;-70
2022/12/31 02:27:24;;;;;;;12.67;11.47;;;;;;;5.38;100.00;97024.66;5044198;28;20227;-70
2022/12/31 02:30:07;;;;;;;12.73;11.20;;;;;;;5.34;100.00;97021.53;5045191;28;20218;-68
2022/12/31 02:32:42;;;;;;;13.63;11.27;;;;;;;5.42;100.00;97022.53;5035777;28;20227;-68
2022/12/31 02:35:13;;;;;;;12.43;11.20;;;;;;;5.45;100.00;97011.72;5047986;28;20207;-70
2022/12/31 02:37:43;;;;;;;13.10;11.27;;;;;;;5.44;100.00;97021.38;5003008;28;20223;-69
2022/12/31 02:40:14;;;;;;;13.17;11.97;;;;;;;5.45;100.00;97030.13;5044318;28;20200;-69
2022/12/31 02:42:42;;;;;;;13.63;12.23;;;;;;;5.43;100.00;97026.81;5046894;28;20777;-68
2022/12/31 02:45:13;;;;;;;14.43;12.63;;;;;;;5.44;100.00;97029.28;5044323;28;20207;-69
2022/12/31 02:47:50;;;;;;;13.00;11.70;;;;;;;5.42;100.00;97035.69;5029942;28;20714;-68
2022/12/31 02:50:29;;;;;;;13.27;12.00;;;;;;;5.45;100.00;97033.56;5045052;28;20213;-69
2022/12/31 02:53:05;;;;;;;13.57;10.83;;;;;;;5.49;100.00;97036.69;4994976;28;20715;-70
2022/12/31 02:55:37;;;;;;;13.63;11.93;;;;;;;5.50;100.00;97043.59;5040916;28;20238;-68
2022/12/31 02:58:11;;;;;;;13.57;12.17;;;;;;;5.50;100.00;97043.59;5045885;28;20666;-69
2022/12/31 03:03:30;;;;;;;14.47;13.03;;;;;;;5.52;100.00;97038.22;5042122;28;20276;-67
2022/12/31 03:06:00;;;;;;;16.27;12.83;;;;;;;5.44;100.00;97016.13;5031001;28;20409;-69
2022/12/31 03:08:28;;;;;;;13.20;12.00;;;;;;;5.48;100.00;97033.25;4999061;28;20240;-68
2022/12/31 03:10:56;;;;;;;13.13;11.83;;;;;;;5.57;100.00;97014.91;5029618;28;20864;-68
2022/12/31 03:13:23;;;;;;;12.07;10.93;;;;;;;5.61;100.00;97030.19;5044220;28;20200;-67
2022/12/31 03:15:51;;;;;;;12.70;11.53;;;;;;;5.62;100.00;97028.41;5040430;28;20223;-69
2022/12/31 03:22:26;;;;;;;12.97;11.67;;;;;;;5.62;100.00;97023.94;5041345;28;20233;-68
2022/12/31 03:26:42;;;;;;;13.27;11.77;;;;;;;5.65;100.00;97049.94;4989362;28;20212;-67
2022/12/31 03:29:10;;;;;;;12.80;11.60;;;;;;;5.69;100.00;97054.91;5022618;28;20763;-69
2022/12/31 03:31:39;;;;;;;13.30;12.00;;;;;;;5.69;100.00;97057.53;5017078;28;20317;-69
2022/12/31 03:34:06;;;;;;;12.20;11.10;;;;;;;5.69;100.00;97054.91;5009496;28;20203;-69
2022/12/31 03:36:34;;;;;;;12.80;10.90;;;;;;;5.69;100.00;97052.28;5036185;28;20436;-70
2022/12/31 03:39:01;;;;;;;13.17;11.60;;;;;;;5.69;100.00;97058.34;5034668;28;20227;-68
2022/12/31 03:41:29;;;;;;;12.83;11.63;;;;;;;5.73;100.00;97062.28;4992060;28;20213;-67
2022/12/31 03:43:57;;;;;;;12.57;11.33;;;;;;;5.72;100.00;97060.66;5041428;28;20571;-69
2022/12/31 03:46:24;;;;;;;12.23;10.93;;;;;;;5.77;100.00;97062.81;5033451;28;20251;-67
2022/12/31 03:48:53;;;;;;;11.87;10.83;;;;;;;5.75;100.00;97049.81;5020586;28;20226;-68
2022/12/31 03:51:21;;;;;;;12.37;11.07;;;;;;;5.76;100.00;97045.41;5020325;28;21788;-68
2022/12/31 03:53:48;;;;;;;11.63;10.43;;;;;;;5.79;100.00;97053.78;5036828;28;20204;-70
2022/12/31 03:56:16;;;;;;;12.90;11.47;;;;;;;5.82;100.00;97043.94;5035942;28;20598;-68
2022/12/31 03:58:43;;;;;;;11.60;10.57;;;;;;;5.87;100.00;97060.91;4996512;28;20349;-70
2022/12/31 04:01:11;;;;;;;11.83;10.63;;;;;;;5.88;100.00;97053.84;5037113;28;20815;-71
2022/12/31 04:03:38;;;;;;;12.30;11.00;;;;;;;5.81;100.00;97053.63;5029149;28;20826;-70
2022/12/31 04:06:07;;;;;;;11.90;10.80;;;;;;;5.75;100.00;97059.53;5021709;28;20203;-67
2022/12/31 04:08:35;;;;;;;12.47;9.83;;;;;;;5.64;100.00;97044.84;5036212;28;20223;-68
2022/12/31 04:11:03;;;;;;;10.40;9.50;;;;;;;5.62;100.00;97050.25;5036634;28;20203;-68
2022/12/31 04:13:30;;;;;;;10.73;9.67;;;;;;;5.66;100.00;97061.28;4993838;28;20219;-67
2022/12/31 04:15:58;;;;;;;12.50;11.13;;;;;;;5.61;100.00;97060.94;5017954;28;20207;-71
2022/12/31 04:18:26;;;;;;;11.70;10.60;;;;;;;5.58;100.00;97063.88;5035578;28;20245;-71
2022/12/31 04:20:53;;;;;;;11.40;10.40;;;;;;;5.51;100.00;97058.41;5027005;28;20217;-68
2022/12/31 04:23:22;;;;;;;12.13;10.83;;;;;;;5.48;100.00;97064.78;5023096;28;20496;-71
2022/12/31 04:25:50;;;;;;;12.77;11.07;;;;;;;5.46;100.00;97065.91;5042210;28;20207;-70
2022/12/31 04:28:17;;;;;;;13.17;11.50;;;;;;;5.43;100.00;97074.94;4976534;28;21335;-70
2022/12/31 04:30:45;;;;;;;12.83;11.53;;;;;;;5.40;100.00;97077.06;5041587;28;20203;-70
2022/12/31 04:33:12;;;;;;;12.07;10.87;;;;;;;5.41;100.00;97065.56;5028448;28;20215;-70
2022/12/31 04:35:40;;;;;;;12.03;10.80;;;;;;;5.33;100.00;97066.31;5032352;28;20234;-69
2022/12/31 04:38:07;;;;;;;12.07;10.53;;;;;;;5.34;100.00;97071.44;5022217;28;20590;-68
2022/12/31 04:41:15;;;;;;;12.77;11.53;;;;;;;5.40;100.00;97069.16;5043251;28;20387;-69
2022/12/31 04:43:25;;;;;;;12.53;11.30;;;;;;;5.43;100.00;97074.13;5037516;28;21321;-70
2022/12/31 04:45:52;;;;;;;12.87;11.67;;;;;;;5.42;100.00;97078.53;4999191;28;20210;-69
2022/12/31 04:48:20;;;;;;;12.40;11.10;;;;;;;5.48;100.00;97077.91;5019003;28;21105;-71
2022/12/31 04:50:47;;;;;;;11.43;10.03;;;;;;;5.49;100.00;97087.47;5036236;28;20295;-71
2022/12/31 04:53:15;;;;;;;11.00;9.77;;;;;;;5.56;100.00;97082.41;5007843;28;20211;-71
2022/12/31 04:55:45;;;;;;;10.97;9.87;;;;;;;5.60;100.00;97085.56;5049560;28;20214;-70
2022/12/31 04:58:12;;;;;;;11.17;9.93;;;;;;;5.72;100.00;97080.88;5039743;28;20235;-69
2022/12/31 05:00:40;;;;;;;11.07;9.87;;;;;;;5.73;100.00;97085.16;4999737;28;20661;-69
2022/12/31 05:03:07;;;;;;;10.73;9.73;;;;;;;5.82;100.00;97092.09;5039824;28;20737;-70
2022/12/31 05:05:38;;;;;;;11.00;9.77;;;;;;;5.90;100.00;97091.31;5035542;28;20665;-71
2022/12/31 05:08:06;;;;;;;10.50;9.43;;;;;;;5.93;100.00;97091.81;5016900;28;20218;-67
2022/12/31 05:10:34;;;;;;;9.77;8.70;;;;;;;6.08;100.00;97110.50;5044833;28;20206;-71
2022/12/31 05:13:03;;;;;;;10.43;9.27;;;;;;;6.12;100.00;97104.91;5022431;28;20215;-71
2022/12/31 05:15:31;;;;;;;9.37;8.60;;;;;;;6.16;100.00;97109.72;4998105;28;20204;-68
2022/12/31 05:17:58;;;;;;;8.80;8.00;;;;;;;6.27;100.00;97106.00;5044626;28;20303;-70
2022/12/31 05:20:26;;;;;;;9.47;8.47;;;;;;;6.27;100.00;97111.25;5030559;28;20206;-68
2022/12/31 05:22:53;;;;;;;9.10;8.30;;;;;;;6.30;100.00;97105.66;5025195;28;20207;-70
2022/12/31 05:25:21;;;;;;;9.20;8.40;;;;;;;6.30;100.00;97102.19;5024159;28;20217;-68
2022/12/31 05:27:49;;;;;;;9.40;8.57;;;;;;;6.33;100.00;97092.19;5022875;28;20692;-70
2022/12/31 05:30:18;;;;;;;8.43;7.73;;;;;;;6.29;100.00;97098.75;5033203;28;20203;-68
2022/12/31 05:32:46;;;;;;;8.40;7.60;;;;;;;6.42;100.00;97102.75;5018369;28;20347;-71
2022/12/31 05:35:15;;;;;;;7.87;7.27;;;;;;;6.40;100.00;97100.25;4990477;28;20212;-70
2022/12/31 05:37:43;;;;;;;7.37;6.57;;;;;;;6.45;100.00;97111.16;5028549;28;20230;-71
2022/12/31 05:40:11;;;;;;;8.53;7.63;;;;;;;6.47;100.00;97113.63;5041006;28;20553;-68
2022/12/31 05:42:39;;;;;;;7.60;7.03;;;;;;;6.41;100.00;97095.81;5030133;28;20288;-70
2022/12/31 05:45:08;;;;;;;7.23;6.60;;;;;;;6.40;100.00;97088.91;5040010;28;20610;-70
2022/12/31 05:47:37;;;;;;;6.97;6.30;;;;;;;6.33;100.00;97105.34;5037809;28;20230;-70
2022/12/31 05:50:05;;;;;;;7.53;6.33;;;;;;;6.30;100.00;97108.31;5005447;28;20305;-65
2022/12/31 05:52:33;;;;;;;6.20;5.70;;;;;;;6.31;100.00;97099.44;5037192;28;20750;-66
2022/12/31 05:55:00;;;;;;;5.90;5.40;;;;;;;6.40;100.00;97109.97;5047328;28;20200;-65
2022/12/31 05:57:28;;;;;;;8.20;5.83;;;;;;;6.31;100.00;97107.31;5033234;28;20234;-70
2022/12/31 05:59:56;;;;;;;6.87;5.97;;;;;;;6.26;100.00;97117.50;5041109;28;20207;-67
2022/12/31 06:02:23;;;;;;;6.57;5.93;;;;;;;6.29;100.00;97113.72;5045131;28;20878;-70
2022/12/31 06:04:53;;;;;;;10.17;7.83;;;;;;;6.40;100.00;97112.59;5029898;28;20234;-68
2022/12/31 06:07:20;;;;;;;7.07;6.47;;;;;;;6.47;100.00;97121.50;5019769;28;20222;-70
2022/12/31 06:09:48;;;;;;;7.10;6.50;;;;;;;6.51;100.00;97125.47;5027611;28;20694;-70
2022/12/31 06:12:16;;;;;;;6.90;6.40;;;;;;;6.51;100.00;97128.94;5024242;28;20936;-67
2022/12/31 06:14:44;;;;;;;6.63;6.13;;;;;;;6.56;100.00;97130.25;5017553;28;20318;-67
2022/12/31 06:17:12;;;;;;;6.43;5.93;;;;;;;6.66;100.00;97133.56;5045427;28;20337;-67
2022/12/31 06:19:40;;;;;;;6.20;5.77;;;;;;;6.62;100.00;97125.16;5036964;28;20219;-66
2022/12/31 06:22:08;;;;;;;6.00;5.50;;;;;;;6.72;100.00;97124.22;5009127;28;20203;-69
2022/12/31 06:24:36;;;;;;;5.50;5.10;;;;;;;6.75;100.00;97123.91;5044128;28;20238;-67
2022/12/31 06:27:04;;;;;;;6.07;5.57;;;;;;;6.69;100.00;97129.81;5027697;28;20245;-69
2022/12/31 06:29:31;;;;;;;5.13;4.73;;;;;;;6.69;100.00;97135.06;5024754;28;20218;-68
2022/12/31 06:31:59;;;;;;;5.40;5.00;;;;;;;6.61;100.00;97136.69;5027303;28;23012;-69
2022/12/31 06:34:26;;;;;;;5.80;5.37;;;;;;;6.63;100.00;97144.44;5027392;28;20306;-67
2022/12/31 06:36:54;;;;;;;5.40;5.00;;;;;;;6.76;100.00;97142.16;5003716;28;20834;-69
2022/12/31 06:39:23;;;;;;;5.60;5.20;;;;;;;6.77;100.00;97143.00;5027785;28;20253;-67
2022/12/31 06:41:50;;;;;;;5.77;5.37;;;;;;;6.85;100.00;97144.84;5043490;28;20233;-70
2022/12/31 06:44:21;;;;;;;5.60;4.70;;;;;;;6.89;100.00;97135.63;5024836;28;20217;-67
2022/12/31 06:46:49;;;;;;;5.77;5.17;;;;;;;6.90;100.00;97143.34;5041174;28;20195;-67
2022/12/31 06:49:17;;;;;;;5.20;4.80;;;;;;;6.99;100.00;97138.09;5024066;28;20247;-67
2022/12/31 06:51:46;;;;;;;5.40;4.90;;;;;;;7.05;100.00;97134.81;5024792;28;20213;-69
2022/12/31 06:54:14;;;;;;;5.30;4.80;;;;;;;7.07;100.00;97143.38;5001797;28;20219;-67
2022/12/31 06:56:43;;;;;;;4.90;4.53;;;;;;;7.10;100.00;97140.44;5038397;28;20208;-69
2022/12/31 06:59:25;;;;;;;4.57;4.27;;;;;;;7.09;100.00;97144.03;5028916;28;20227;-68
2022/12/31 07:02:03;;;;;;;4.60;4.20;;;;;;;7.11;100.00;97163.16;5040890;28;20206;-69
2022/12/31 07:04:55;;;;;;;6.00;5.33;;;;;;;7.13;100.00;97176.16;5023054;28;20321;-69
2022/12/31 07:07:26;;;;;;;4.20;3.90;;;;;;;7.11;100.00;97163.16;4997928;28;20226;-67
2022/12/31 07:09:59;;;;;;;4.47;4.10;;;;;;;7.18;100.00;97160.66;5043216;28;20207;-69
2022/12/31 07:12:39;;;;;;;4.53;4.30;;;;;;;7.15;100.00;97155.72;5024133;28;20690;-69
2022/12/31 07:15:11;;;;;;;4.07;3.77;;;;;;;7.25;100.00;97159.06;5025162;28;20473;-72
2022/12/31 07:17:46;;;;;;;4.37;4.00;;;;;;;7.25;100.00;97159.06;5027473;28;20222;-70
2022/12/31 07:20:16;;;;;;;4.13;3.93;;;;;;;7.22;100.00;97157.56;5043450;28;20582;-68
2022/12/31 07:22:44;;;;;;;4.40;4.00;;;;;;;7.30;100.00;97158.53;5004406;28;20254;-71
2022/12/31 07:25:13;;;;;;;4.93;4.53;;;;;;;7.32;100.00;97161.84;5040581;28;20206;-69
2022/12/31 07:28:02;;;;;;;4.20;4.00;;;;;;;7.36;100.00;97165.78;5040317;28;20361;-71
2022/12/31 07:30:35;;;;;;;4.07;3.87;;;;;;;7.47;100.00;97162.00;5019125;28;20199;-69
2022/12/31 07:33:15;;;;;;;4.10;3.73;;;;;;;7.55;100.00;97179.66;5043053;28;20214;-70
2022/12/31 07:35:51;;;;;;;4.53;4.23;;;;;;;7.52;100.00;97178.16;5043284;28;20364;-71
2022/12/31 07:38:24;;;;;;;4.27;3.97;;;;;;;7.52;100.00;97189.53;4978268;28;20223;-70
2022/12/31 07:40:59;;;;;;;4.97;4.17;;;;;;;7.55;100.00;97175.19;5041273;28;20203;-69
2022/12/31 07:43:46;;;;;;;4.53;4.23;;;;;;;7.48;100.00;97179.47;4983494;28;21585;-70
2022/12/31 07:46:19;;;;;;;8.40;4.20;;;;;;;7.43;100.00;97187.91;5045320;28;20206;-72
2022/12/31 07:48:47;;;;;;;5.40;5.00;;;;;;;7.42;100.00;97182.78;5008624;28;20639;-68
2022/12/31 07:51:16;;;;;;;5.70;5.20;;;;;;;7.37;100.00;97193.78;5026120;28;20211;-71
2022/12/31 07:53:43;;;;;;;5.07;4.67;;;;;;;7.32;100.00;97191.66;5021009;28;20203;-68
2022/12/31 07:56:11;;;;;;;5.67;5.27;;;;;;;7.36;100.00;97197.41;5040356;28;20290;-69
2022/12/31 07:58:51;;;;;;;5.73;5.23;;;;;;;7.39;100.00;97190.03;4994377;28;20227;-70
2022/12/31 08:01:28;;;;;;;5.67;5.17;;;;;;;7.44;100.00;97194.81;5042313;28;21017;-68
2022/12/31 08:04:02;;;;;;;5.30;4.90;;;;;;;7.47;100.00;97198.91;5030562;28;20203;-67
2022/12/31 08:06:36;;;;;;;5.60;5.07;;;;;;;7.43;100.00;97187.06;5012952;28;20416;-69
2022/12/31 08:09:08;;;;;;;6.07;5.67;;;;;;;7.38;100.00;97193.66;5022023;28;20219;-71
2022/12/31 08:11:40;;;;;;;7.57;6.97;;;;;;;7.42;100.00;97203.88;5025024;28;20217;-69
2022/12/31 08:14:12;;;;;;;5.37;5.00;;;;;;;7.49;100.00;97199.59;4993998;28;20320;-68
2022/12/31 08:16:40;;;;;;;5.07;4.77;;;;;;;7.55;100.00;97212.09;5033149;28;20981;-68
2022/12/31 08:19:13;;;;;;;5.10;4.80;;;;;;;7.65;100.00;97209.31;5039057;28;20230;-68
2022/12/31 08:21:48;;;;;;;5.73;5.23;;;;;;;7.66;100.00;97206.53;5019316;28;20203;-70
2022/12/31 08:24:23;;;;;;;5.67;5.20;;;;;;;7.75;100.00;97209.97;5025772;28;20238;-68
2022/12/31 08:26:58;;;;;;;5.13;4.83;;;;;;;7.78;100.00;97208.81;5042252;28;20360;-70
2022/12/31 08:29:35;;;;;;;4.80;4.50;;;;;;;7.78;100.00;97199.13;4995825;28;20778;-68
2022/12/31 08:32:09;;;;;;;4.63;4.33;;;;;;;7.85;100.00;97206.34;5021950;28;20203;-68
2022/12/31 08:34:44;;;;;;;4.63;4.33;;;;;;;7.91;100.00;97213.59;5038519;28;20785;-71
2022/12/31 08:37:15;;;;;;;4.77;4.47;;;;;;;7.93;100.00;97224.81;5015932;28;20230;-68
2022/12/31 08:39:57;;;;;;;5.73;5.10;;;;;;;7.90;100.00;97240.97;5037066;28;20223;-71
2022/12/31 08:42:29;;;;;;;4.83;4.53;;;;;;;7.92;100.00;97236.34;5026255;28;20203;-69
2022/12/31 08:45:04;;;;;;;5.20;4.70;;;;;;;7.91;100.00;97230.25;4993972;28;20226;-70
2022/12/31 08:47:38;;;;;;;6.53;5.90;;;;;;;8.05;100.00;97236.66;5020245;28;20226;-70
2022/12/31 08:50:12;;;;;;;8.60;7.80;;;;;;;8.21;100.00;97227.91;5020783;28;20436;-71
2022/12/31 08:52:40;;;;;;;6.93;5.37;;;;;;;8.32;100.00;97226.72;5006628;28;20202;-66
2022/12/31 08:55:13;;;;;;;5.07;4.60;;;;;;;8.37;100.00;97228.88;5042583;28;20317;-71
2022/12/31 08:57:46;;;;;;;4.83;4.43;;;;;;;8.36;100.00;97233.31;5036697;28;20702;-69
2022/12/31 09:00:17;;;;;;;4.07;3.77;;;;;;;8.50;100.00;97231.00;4999155;28;20800;-69
2022/12/31 09:03:10;;;;;;;4.30;3.90;;;;;;;8.67;100.00;97229.97;5022908;28;20203;-69
2022/12/31 09:05:51;;;;;;;4.00;3.70;;;;;;;8.86;100.00;97217.31;5041290;28;20207;-69
2022/12/31 09:08:25;;;;;;;3.17;2.97;;;;;;;9.09;100.00;97219.22;5001031;28;20231;-68
2022/12/31 09:10:57;;;;;;;3.33;3.13;;;;;;;9.27;100.00;97219.75;5028234;28;20200;-71
2022/12/31 09:13:32;;;;;;;3.17;2.97;;;;;;;9.51;100.00;97217.16;5045082;28;20202;-72
2022/12/31 09:16:07;;;;;;;3.00;2.80;;;;;;;9.56;100.00;97217.44;4995958;28;21690;-72
2022/12/31 09:18:38;;;;;;;2.90;2.73;;;;;;;9.67;100.00;97232.88;5025017;28;20238;-69
2022/12/31 09:21:08;;;;;;;2.93;2.80;;;;;;;9.79;100.00;97225.34;5035312;28;20237;-67
2022/12/31 09:23:37;;;;;;;4.27;3.60;;;;;;;9.82;100.00;97227.66;5021012;28;20463;-68
2022/12/31 09:26:15;;;;;;;2.73;2.53;;;;;;;9.93;100.00;97229.06;5034473;28;20392;-70
2022/12/31 09:28:48;;;;;;;2.83;2.67;;;;;;;9.95;100.00;97235.00;5038711;28;20226;-67
2022/12/31 09:31:22;;;;;;;2.73;2.63;;;;;;;10.02;100.00;97223.69;4998215;28;20207;-68
2022/12/31 09:33:51;;;;;;;2.50;2.40;;;;;;;10.07;100.00;97226.59;5019230;28;20253;-69
2022/12/31 09:36:22;;;;;;;2.83;2.63;;;;;;;10.15;100.00;97229.16;5038827;28;20568;-67
2022/12/31 09:38:53;;;;;;;2.93;2.83;;;;;;;10.31;100.00;97230.03;5023283;28;20228;-70
2022/12/31 09:41:44;;;;;;;5.83;5.33;;;;;;;10.54;100.00;97222.84;5027816;28;20207;-68
2022/12/31 09:44:50;;;;;;;3.33;3.13;;;;;;;10.78;100.00;97210.31;5046540;28;20206;-68
2022/12/31 09:47:45;;;;;;;2.53;2.40;;;;;;;10.66;100.00;97212.63;4999552;28;20230;-68
2022/12/31 09:50:27;;;;;;;2.43;2.33;;;;;;;10.45;100.00;97209.88;4989445;28;20810;-71
2022/12/31 09:53:06;;;;;;;2.33;2.23;;;;;;;10.48;100.00;97212.97;5035058;28;20480;-68
2022/12/31 09:55:37;;;;;;;3.03;2.83;;;;;;;10.47;100.00;97213.19;5027733;28;20396;-67
2022/12/31 09:58:15;;;;;;;2.87;2.67;;;;;;;10.50;100.00;97213.63;5046300;28;20223;-68
2022/12/31 10:00:44;;;;;;;2.57;2.37;;;;;;;10.54;100.00;97222.84;5007085;28;20417;-69
2022/12/31 10:03:35;;;;;;;2.43;2.33;;;;;;;10.61;100.00;97230.91;5046382;28;20704;-69
2022/12/31 10:06:16;;;;;;;3.30;2.70;;;;;;;10.63;100.00;97228.06;5000120;28;20215;-69
2022/12/31 10:09:07;;;;;;;2.53;2.40;;;;;;;10.64;100.00;97233.16;5041559;28;20222;-70
2022/12/31 10:11:52;;;;;;;2.53;2.33;;;;;;;10.64;100.00;97242.97;5023169;28;20706;-68
2022/12/31 10:14:29;;;;;;;5.70;5.20;;;;;;;10.67;100.00;97238.09;5030496;28;21046;-70
2022/12/31 10:17:06;;;;;;;2.50;2.33;;;;;;;10.75;100.00;97231.91;5035402;28;20836;-67
2022/12/31 10:19:47;;;;;;;1.90;1.80;;;;;;;10.91;100.00;97238.84;5048441;28;20329;-71
2022/12/31 10:22:37;;;;;;;1.80;1.70;;;;;;;11.03;100.00;97243.66;5008363;28;20214;-70
2022/12/31 10:25:20;;;;;;;2.40;2.20;;;;;;;11.10;100.00;97241.91;5045540;28;21036;-68
2022/12/31 10:28:06;;;;;;;4.40;2.53;;;;;;;11.09;100.00;97242.91;5046822;28;20239;-70
2022/12/31 10:30:35;;;;;;;2.10;2.00;;;;;;;11.08;100.00;97244.75;5030003;28;20748;-71
2022/12/31 10:33:08;;;;;;;1.57;1.50;;;;;;;11.08;100.00;97252.69;5046576;28;20207;-68
2022/12/31 10:35:42;;;;;;;2.20;2.10;;;;;;;11.08;100.00;97249.22;5047322;28;20202;-71
2022/12/31 10:38:20;;;;;;;2.90;2.30;;;;;;;11.07;100.00;97251.06;5009080;28;20446;-70
2022/12/31 10:41:20;;;;;;;2.20;1.83;;;;;;;11.06;100.00;97245.94;5028499;28;20262;-68
2022/12/31 10:44:09;;;;;;;3.23;2.33;;;;;;;11.06;100.00;97244.13;5039929;28;20203;-67
2022/12/31 10:46:48;;;;;;;2.57;2.20;;;;;;;11.15;100.00;97239.50;5025059;28;20230;-70
2022/12/31 10:50:04;;;;;;;2.50;2.10;;;;;;;11.23;100.00;97239.41;5044179;28;20237;-69
2022/12/31 10:52:55;;;;;;;2.50;2.40;;;;;;;11.20;100.00;97236.31;4980488;28;20211;-69
2022/12/31 10:56:07;;;;;;;1.80;1.70;;;;;;;11.25;100.00;97232.09;5047780;28;20199;-68
2022/12/31 10:59:05;;;;;;;2.23;2.13;;;;;;;11.29;100.00;97237.81;5040903;28;20733;-69
2022/12/31 11:01:42;;;;;;;2.90;2.70;;;;;;;11.42;100.00;97235.34;5029125;28;20233;-70
2022/12/31 11:04:28;;;;;;;5.97;2.30;;;;;;;11.43;100.00;97236.16;5039628;28;20216;-71
2022/12/31 11:07:15;;;;;;;9.97;7.80;;;;;;;11.53;100.00;97226.03;5004033;28;20203;-69
2022/12/31 11:09:58;;;;;;;2.20;2.10;;;;;;;11.44;100.00;97221.88;5026817;28;20218;-70
2022/12/31 11:12:45;;;;;;;3.63;2.70;;;;;;;11.56;100.00;97217.72;5014770;28;20226;-70
2022/12/31 11:15:18;;;;;;;2.10;2.00;;;;;;;11.51;100.00;97214.00;5028132;28;20214;-70
2022/12/31 11:17:54;;;;;;;2.30;2.13;;;;;;;11.53;100.00;97220.72;5010791;28;20254;-70
2022/12/31 11:20:45;;;;;;;3.17;2.17;;;;;;;11.61;100.00;97213.69;5044114;28;20223;-71
2022/12/31 11:23:24;;;;;;;2.23;2.10;;;;;;;11.77;100.00;97218.72;4986666;28;20625;-70
2022/12/31 11:26:04;;;;;;;2.40;2.00;;;;;;;11.85;100.00;97213.25;5040927;28;20199;-69
2022/12/31 11:28:50;;;;;;;2.97;2.73;;;;;;;11.77;100.00;97218.72;5045042;28;20222;-70
2022/12/31 11:31:27;;;;;;;2.27;2.17;;;;;;;11.95;100.00;97212.94;5041174;28;20199;-71
2022/12/31 11:34:09;;;;;;;1.97;1.87;;;;;;;12.04;100.00;97199.56;5016974;28;20207;-69
2022/12/31 11:36:42;;;;;;;2.43;2.23;;;;;;;12.13;100.00;97217.00;5023101;28;20800;-71
2022/12/31 11:39:40;;;;;;;2.13;1.60;;;;;;;12.02;100.00;97218.34;4960979;28;20278;-72
2022/12/31 11:42:19;;;;;;;1.90;1.80;;;;;;;12.04;100.00;97216.31;5037622;28;20228;-71
2022/12/31 11:44:51;;;;;;;1.73;1.63;;;;;;;12.15;100.00;97212.31;5042662;28;20207;-69
2022/12/31 11:47:36;;;;;;;11.77;10.57;;;;;;;12.32;100.00;97206.69;5006469;28;20927;-71
2022/12/31 11:50:30;;;;;;;2.70;2.30;;;;;;;12.27;100.00;97197.47;5037092;28;20210;-70
2022/12/31 11:53:07;;;;;;;2.90;2.70;;;;;;;12.31;100.00;97205.88;5034025;28;20194;-67
2022/12/31 11:55:43;;;;;;;2.43;2.33;;;;;;;12.42;100.00;97196.53;4986393;28;20217;-69
2022/12/31 11:58:14;;;;;;;2.27;2.17;;;;;;;12.48;100.00;97182.47;4992534;28;20227;-71
2022/12/31 12:00:45;;;;;;;2.20;2.10;;;;;;;12.57;100.00;97183.97;5040669;28;20253;-69
2022/12/31 12:03:13;;;;;;;1.53;1.43;;;;;;;12.88;100.00;97173.88;5048215;28;20457;-70